Time;durP1;ratioP1;P1;durP2;ratioP2;P2;SDS_P1;SDS_P2;PMS_P1;PMS_P2;Temp;Humidity;BMP_temperature;BMP_pressure;BME280_temperature;BME280_humidity;BME280_pressure;Samples;Min_cycle;Max_cycle;Signal;HPM_P1;HPM_P2
2022/04/29 00:00:31;;;;;;;13.90;12.60;;;;;;;;;;5081262;28;24439;-46
2022/04/29 00:02:56;;;;;;;14.63;13.33;;;;;;;;;;5084990;28;24789;-45
2022/04/29 00:05:22;;;;;;;15.32;13.82;;;;;;;;;;5087199;28;24426;-45
2022/04/29 00:07:47;;;;;;;14.30;12.85;;;;;;;;;;5083947;28;24418;-45
2022/04/29 00:10:13;;;;;;;15.00;13.50;;;;;;;;;;5085879;28;24452;-46
2022/04/29 00:12:43;;;;;;;15.52;13.40;;;;;;;;;;5085115;28;24426;-46
2022/04/29 00:15:08;;;;;;;15.30;14.00;;;;;;;;;;5086730;28;24422;-46
2022/04/29 00:17:33;;;;;;;14.68;13.25;;;;;;;;;;5082014;28;24449;-46
2022/04/29 00:19:59;;;;;;;15.47;13.97;;;;;;;;;;5084369;28;24445;-47
2022/04/29 00:22:24;;;;;;;14.83;13.33;;;;;;;;;;5085675;28;24425;-46
2022/04/29 00:24:49;;;;;;;14.07;12.67;;;;;;;;;;5086810;28;24433;-47
2022/04/29 00:27:14;;;;;;;15.20;13.60;;;;;;;;;;5084641;28;24511;-47
2022/04/29 00:29:39;;;;;;;14.80;13.37;;;;;;;;;;5083896;28;24868;-47
2022/04/29 00:32:05;;;;;;;15.17;13.67;;;;;;;;;;5086283;28;24509;-46
2022/04/29 00:34:30;;;;;;;16.17;14.68;;;;;;;;;;5084794;28;24998;-46
2022/04/29 00:36:55;;;;;;;14.70;13.40;;;;;;;;;;5082198;28;24522;-46
2022/04/29 00:39:20;;;;;;;14.70;13.20;;;;;;;;;;5077042;28;24449;-47
2022/04/29 00:41:45;;;;;;;14.97;13.57;;;;;;;;;;5084248;28;24793;-47
2022/04/29 00:44:11;;;;;;;14.40;13.10;;;;;;;;;;5071336;28;24423;-46
2022/04/29 00:46:40;;;;;;;14.57;13.17;;;;;;;;;;5084321;28;24410;-46
2022/04/29 00:49:07;;;;;;;16.60;14.23;;;;;;;;;;5084818;28;24414;-46
2022/04/29 00:51:32;;;;;;;14.45;12.95;;;;;;;;;;5081247;28;24932;-46
2022/04/29 00:53:57;;;;;;;15.00;13.53;;;;;;;;;;5085288;28;24815;-46
2022/04/29 00:56:25;;;;;;;14.37;12.97;;;;;;;;;;5085366;28;24479;-46
2022/04/29 00:59:04;;;;;;;14.93;13.52;;;;;;;;;;5085426;28;24425;-46
2022/04/29 01:01:32;;;;;;;13.75;12.45;;;;;;;;;;5085686;28;24429;-47
2022/04/29 01:03:58;;;;;;;13.40;12.00;;;;;;;;;;5085521;28;24441;-47
2022/04/29 01:06:24;;;;;;;14.70;13.30;;;;;;;;;;5085235;28;24890;-46
2022/04/29 01:08:49;;;;;;;14.07;12.77;;;;;;;;;;5075179;28;25033;-46
2022/04/29 01:11:14;;;;;;;13.70;12.32;;;;;;;;;;5081017;28;24498;-46
2022/04/29 01:13:39;;;;;;;14.23;12.70;;;;;;;;;;5081358;28;24814;-46
2022/04/29 01:16:06;;;;;;;13.73;12.40;;;;;;;;;;5084581;28;24522;-46
2022/04/29 01:18:31;;;;;;;13.52;12.32;;;;;;;;;;5075619;28;24463;-47
2022/04/29 01:21:04;;;;;;;13.53;12.13;;;;;;;;;;5083251;28;24434;-46
2022/04/29 01:23:29;;;;;;;13.50;12.20;;;;;;;;;;5084735;28;25003;-46
2022/04/29 01:25:54;;;;;;;14.43;12.95;;;;;;;;;;5083749;28;24449;-47
2022/04/29 01:28:20;;;;;;;14.37;12.97;;;;;;;;;;5068335;28;24445;-46
2022/04/29 01:30:46;;;;;;;13.77;12.48;;;;;;;;;;5082870;28;24780;-46
2022/04/29 01:33:13;;;;;;;13.60;12.40;;;;;;;;;;5070640;28;24969;-46
2022/04/29 01:35:38;;;;;;;13.55;12.25;;;;;;;;;;5074703;28;24429;-46
2022/04/29 01:38:03;;;;;;;14.05;12.75;;;;;;;;;;5084097;28;24418;-46
2022/04/29 01:40:29;;;;;;;14.00;12.60;;;;;;;;;;5082727;28;24426;-46
2022/04/29 01:42:54;;;;;;;13.90;12.50;;;;;;;;;;5084120;28;24415;-47
2022/04/29 01:45:19;;;;;;;13.35;12.00;;;;;;;;;;5084575;28;24743;-46
2022/04/29 01:47:44;;;;;;;13.60;12.30;;;;;;;;;;5083978;28;24449;-46
2022/04/29 01:50:09;;;;;;;13.55;12.30;;;;;;;;;;5085309;28;24784;-46
2022/04/29 01:52:35;;;;;;;13.20;11.90;;;;;;;;;;5082924;28;25020;-46
2022/04/29 01:55:00;;;;;;;13.77;12.30;;;;;;;;;;5087042;28;24471;-47
2022/04/29 01:57:25;;;;;;;13.83;12.43;;;;;;;;;;5084129;28;24429;-47
2022/04/29 01:59:50;;;;;;;13.55;12.35;;;;;;;;;;5084494;28;24887;-47
2022/04/29 02:02:16;;;;;;;13.00;11.80;;;;;;;;;;5068822;28;24914;-47
2022/04/29 02:04:42;;;;;;;13.95;12.65;;;;;;;;;;5085149;28;24944;-47
2022/04/29 02:07:07;;;;;;;13.73;12.43;;;;;;;;;;5086065;28;24491;-47
2022/04/29 02:09:32;;;;;;;13.70;12.40;;;;;;;;;;5084009;28;24480;-46
2022/04/29 02:12:04;;;;;;;13.50;12.30;;;;;;;;;;5084073;28;24457;-46
2022/04/29 02:14:30;;;;;;;13.30;12.10;;;;;;;;;;5082216;28;24471;-45
2022/04/29 02:16:55;;;;;;;13.70;12.43;;;;;;;;;;5085836;28;24430;-47
2022/04/29 02:19:22;;;;;;;13.37;12.07;;;;;;;;;;5085502;28;24541;-46
2022/04/29 02:21:47;;;;;;;13.38;12.18;;;;;;;;;;5077462;28;24460;-46
2022/04/29 02:24:12;;;;;;;13.05;11.85;;;;;;;;;;5080863;28;25926;-46
2022/04/29 02:26:37;;;;;;;13.60;12.30;;;;;;;;;;5081920;28;24426;-47
2022/04/29 02:29:03;;;;;;;13.65;12.45;;;;;;;;;;5086016;28;24434;-47
2022/04/29 02:31:28;;;;;;;13.27;12.07;;;;;;;;;;5080713;28;24496;-46
2022/04/29 02:33:53;;;;;;;12.57;11.48;;;;;;;;;;5083455;28;24441;-46
2022/04/29 02:36:18;;;;;;;13.60;12.50;;;;;;;;;;5078434;28;24828;-47
2022/04/29 02:38:44;;;;;;;13.18;12.07;;;;;;;;;;5084546;28;24483;-46
2022/04/29 02:41:09;;;;;;;13.75;12.45;;;;;;;;;;5088022;28;24441;-46
2022/04/29 02:43:34;;;;;;;14.10;12.80;;;;;;;;;;5089443;28;24426;-46
2022/04/29 02:45:59;;;;;;;13.80;12.70;;;;;;;;;;5089167;28;25021;-46
2022/04/29 02:48:25;;;;;;;13.98;12.77;;;;;;;;;;5083779;28;25228;-46
2022/04/29 02:50:50;;;;;;;13.00;11.90;;;;;;;;;;5087766;28;24425;-46
2022/04/29 02:53:15;;;;;;;13.47;12.17;;;;;;;;;;5088871;28;24417;-46
2022/04/29 02:55:40;;;;;;;13.30;12.20;;;;;;;;;;5088653;28;24426;-46
2022/04/29 02:58:05;;;;;;;13.63;12.32;;;;;;;;;;5089060;28;24426;-45
2022/04/29 03:00:30;;;;;;;13.67;12.47;;;;;;;;;;5086911;28;24495;-45
2022/04/29 03:02:56;;;;;;;13.32;12.23;;;;;;;;;;5088068;28;24413;-45
2022/04/29 03:05:21;;;;;;;13.97;12.67;;;;;;;;;;5083179;28;24453;-47
2022/04/29 03:07:46;;;;;;;15.30;14.00;;;;;;;;;;5089021;28;24617;-47
2022/04/29 03:10:11;;;;;;;14.30;13.00;;;;;;;;;;5088582;28;24510;-47
2022/04/29 03:12:36;;;;;;;13.82;12.52;;;;;;;;;;5083497;28;24426;-46
2022/04/29 03:15:17;;;;;;;13.77;12.53;;;;;;;;;;5087188;28;24428;-47
2022/04/29 03:20:26;;;;;;;13.98;12.60;;;;;;;;;;5084731;28;24533;-46
2022/04/29 03:22:52;;;;;;;14.40;13.20;;;;;;;;;;5086658;28;24501;-47
2022/04/29 03:25:17;;;;;;;14.53;13.03;;;;;;;;;;5086615;28;24430;-47
2022/04/29 03:27:42;;;;;;;14.03;12.73;;;;;;;;;;5078898;28;24430;-47
2022/04/29 03:30:08;;;;;;;13.55;12.35;;;;;;;;;;5079711;28;24499;-47
2022/04/29 03:32:35;;;;;;;14.27;12.88;;;;;;;;;;5080700;28;21389;-47
2022/04/29 03:35:00;;;;;;;14.07;12.88;;;;;;;;;;5087205;28;24426;-47
2022/04/29 03:37:25;;;;;;;14.23;12.93;;;;;;;;;;5087487;28;24461;-47
2022/04/29 03:39:50;;;;;;;14.80;13.50;;;;;;;;;;5083979;28;25038;-47
2022/04/29 03:42:16;;;;;;;14.00;12.80;;;;;;;;;;5086512;28;24468;-47
2022/04/29 03:44:41;;;;;;;13.90;12.60;;;;;;;;;;5086158;28;24476;-47
2022/04/29 03:47:06;;;;;;;13.20;12.00;;;;;;;;;;5085318;28;24542;-47
2022/04/29 03:49:37;;;;;;;13.87;12.67;;;;;;;;;;5084699;28;24484;-47
2022/04/29 03:52:02;;;;;;;13.55;12.25;;;;;;;;;;5087201;28;24460;-47
2022/04/29 03:54:28;;;;;;;14.03;12.73;;;;;;;;;;5086508;28;25004;-47
2022/04/29 03:56:53;;;;;;;12.95;11.75;;;;;;;;;;5087206;28;24425;-47
2022/04/29 03:59:18;;;;;;;13.00;11.70;;;;;;;;;;5088055;28;24636;-47
2022/04/29 04:01:44;;;;;;;13.48;12.20;;;;;;;;;;5083362;28;24406;-47
2022/04/29 04:04:09;;;;;;;13.30;12.10;;;;;;;;;;5081524;28;24965;-47
2022/04/29 04:06:52;;;;;;;13.13;11.73;;;;;;;;;;5083961;28;24529;-47
2022/04/29 04:09:18;;;;;;;12.70;11.50;;;;;;;;;;5083712;28;24476;-47
2022/04/29 04:11:44;;;;;;;13.23;12.02;;;;;;;;;;5084764;28;24464;-47
2022/04/29 04:14:09;;;;;;;13.80;12.50;;;;;;;;;;5082248;28;24426;-51
2022/04/29 04:16:35;;;;;;;13.67;12.37;;;;;;;;;;5083148;28;24464;-47
2022/04/29 04:19:00;;;;;;;13.20;12.00;;;;;;;;;;5084587;28;24418;-47
2022/04/29 04:21:26;;;;;;;13.50;12.30;;;;;;;;;;5078991;28;24414;-46
2022/04/29 04:23:53;;;;;;;15.10;13.70;;;;;;;;;;5081523;28;24797;-47
2022/04/29 04:26:18;;;;;;;13.48;12.27;;;;;;;;;;5083950;28;24467;-47
2022/04/29 04:28:43;;;;;;;13.50;12.10;;;;;;;;;;5081525;28;24444;-47
2022/04/29 04:31:08;;;;;;;13.63;12.33;;;;;;;;;;5084724;28;24430;-47
2022/04/29 04:33:33;;;;;;;13.10;11.90;;;;;;;;;;5084858;28;24426;-47
2022/04/29 04:35:59;;;;;;;12.77;11.63;;;;;;;;;;5082707;28;24469;-47
2022/04/29 04:38:26;;;;;;;13.97;12.13;;;;;;;;;;5083023;28;24846;-47
2022/04/29 04:40:51;;;;;;;12.07;10.88;;;;;;;;;;5080076;28;24995;-47
2022/04/29 04:43:16;;;;;;;11.70;10.60;;;;;;;;;;5077651;28;24445;-46
2022/04/29 04:45:42;;;;;;;12.70;11.52;;;;;;;;;;5084881;28;24770;-47
2022/04/29 04:48:07;;;;;;;12.63;11.43;;;;;;;;;;5082305;28;24717;-47
2022/04/29 04:50:32;;;;;;;12.90;11.60;;;;;;;;;;5071282;28;25033;-47
2022/04/29 04:52:57;;;;;;;13.23;11.93;;;;;;;;;;5079386;28;24503;-47
2022/04/29 04:55:22;;;;;;;12.03;10.93;;;;;;;;;;5083412;28;25018;-47
2022/04/29 04:57:48;;;;;;;11.50;10.30;;;;;;;;;;5082144;28;24983;-47
2022/04/29 05:00:13;;;;;;;11.10;10.15;;;;;;;;;;5078255;28;24456;-47
2022/04/29 05:02:39;;;;;;;11.10;10.10;;;;;;;;;;5064266;28;25195;-47
2022/04/29 05:05:04;;;;;;;10.47;9.57;;;;;;;;;;5067112;28;24402;-48
2022/04/29 05:07:32;;;;;;;10.00;9.10;;;;;;;;;;5065863;28;24434;-47
2022/04/29 05:09:57;;;;;;;9.68;8.93;;;;;;;;;;5078375;28;24872;-47
2022/04/29 05:12:23;;;;;;;11.13;10.02;;;;;;;;;;5080236;28;25038;-47
2022/04/29 05:14:48;;;;;;;10.45;9.55;;;;;;;;;;5082195;28;24526;-47
2022/04/29 05:17:13;;;;;;;10.20;9.20;;;;;;;;;;5083638;28;24493;-48
2022/04/29 05:19:38;;;;;;;10.20;9.30;;;;;;;;;;5082078;28;24991;-47
2022/04/29 05:22:03;;;;;;;10.40;9.50;;;;;;;;;;5087045;28;25012;-47
2022/04/29 05:24:29;;;;;;;10.43;9.63;;;;;;;;;;5086358;28;24474;-47
2022/04/29 05:26:54;;;;;;;9.90;9.10;;;;;;;;;;5071907;28;24418;-47
2022/04/29 05:29:19;;;;;;;9.50;8.70;;;;;;;;;;5074389;28;25245;-47
2022/04/29 05:31:44;;;;;;;9.73;8.93;;;;;;;;;;5086511;28;24448;-47
2022/04/29 05:34:09;;;;;;;9.20;8.50;;;;;;;;;;5085071;28;24978;-47
2022/04/29 05:36:35;;;;;;;8.80;8.00;;;;;;;;;;5083721;28;25027;-48
2022/04/29 05:44:28;;;;;;;9.98;9.07;;;;;;;;;;5077729;28;24433;-47
2022/04/29 05:46:53;;;;;;;9.70;8.80;;;;;;;;;;5067294;28;24963;-47
2022/04/29 05:49:19;;;;;;;10.20;9.30;;;;;;;;;;5084482;28;24500;-46
2022/04/29 05:51:44;;;;;;;10.60;9.70;;;;;;;;;;5072255;28;24422;-47
2022/04/29 05:54:09;;;;;;;11.03;9.93;;;;;;;;;;5083682;28;25161;-47
2022/04/29 05:56:34;;;;;;;10.50;9.60;;;;;;;;;;5083474;28;24483;-47
2022/04/29 05:58:59;;;;;;;11.23;10.23;;;;;;;;;;5071962;28;24839;-47
2022/04/29 06:01:24;;;;;;;9.93;9.13;;;;;;;;;;5078594;28;25302;-47
2022/04/29 06:03:49;;;;;;;10.95;9.95;;;;;;;;;;5079841;28;24422;-47
2022/04/29 06:06:15;;;;;;;11.20;10.10;;;;;;;;;;5083030;28;24473;-47
2022/04/29 06:08:40;;;;;;;10.77;9.87;;;;;;;;;;5080170;28;25110;-47
2022/04/29 06:11:05;;;;;;;10.18;9.27;;;;;;;;;;5079775;28;24514;-47
2022/04/29 06:13:30;;;;;;;11.07;10.07;;;;;;;;;;5082638;28;24440;-47
2022/04/29 06:15:56;;;;;;;12.45;10.80;;;;;;;;;;5085569;28;24884;-47
2022/04/29 06:18:21;;;;;;;10.55;9.65;;;;;;;;;;5085231;28;24495;-47
2022/04/29 06:20:46;;;;;;;10.37;9.37;;;;;;;;;;5088637;28;24540;-46
2022/04/29 06:23:11;;;;;;;11.82;10.82;;;;;;;;;;5087947;28;24414;-46
2022/04/29 06:25:36;;;;;;;12.50;11.30;;;;;;;;;;5085182;28;24418;-46
2022/04/29 06:28:01;;;;;;;10.30;9.50;;;;;;;;;;5084080;28;25163;-46
2022/04/29 06:30:26;;;;;;;12.00;10.80;;;;;;;;;;5080683;28;24482;-47
2022/04/29 06:32:55;;;;;;;12.45;11.35;;;;;;;;;;5084177;28;24867;-47
2022/04/29 06:35:20;;;;;;;12.20;10.98;;;;;;;;;;5090265;28;24382;-47
2022/04/29 06:37:46;;;;;;;11.85;10.85;;;;;;;;;;5079801;28;24419;-47
2022/04/29 06:40:12;;;;;;;13.00;11.80;;;;;;;;;;5069589;28;25048;-47
2022/04/29 06:42:46;;;;;;;11.80;10.77;;;;;;;;;;5069500;28;24419;-47
2022/04/29 06:45:11;;;;;;;10.10;9.10;;;;;;;;;;5087121;28;24402;-47
2022/04/29 06:47:36;;;;;;;10.80;9.80;;;;;;;;;;5089715;28;24494;-47
2022/04/29 06:50:02;;;;;;;12.27;11.07;;;;;;;;;;5089571;28;24459;-47
2022/04/29 06:52:27;;;;;;;10.70;9.70;;;;;;;;;;5089454;28;24793;-47
2022/04/29 06:54:54;;;;;;;10.23;9.33;;;;;;;;;;5089499;28;24414;-46
2022/04/29 06:57:19;;;;;;;9.90;9.02;;;;;;;;;;5088074;28;24761;-46
2022/04/29 06:59:44;;;;;;;11.30;10.30;;;;;;;;;;5089271;28;24414;-46
2022/04/29 07:02:09;;;;;;;10.07;9.18;;;;;;;;;;5089556;28;24490;-46
2022/04/29 07:04:34;;;;;;;10.03;9.23;;;;;;;;;;5088979;28;24445;-46
2022/04/29 07:07:00;;;;;;;11.48;10.20;;;;;;;;;;5085008;28;24403;-47
2022/04/29 07:09:25;;;;;;;10.40;9.40;;;;;;;;;;5072066;28;24447;-45
2022/04/29 07:11:51;;;;;;;11.30;10.30;;;;;;;;;;5088941;28;25180;-46
2022/04/29 07:14:16;;;;;;;10.48;9.48;;;;;;;;;;5087444;28;24421;-46
2022/04/29 07:16:41;;;;;;;10.70;9.80;;;;;;;;;;5088597;28;24407;-46
2022/04/29 07:19:06;;;;;;;10.13;9.20;;;;;;;;;;5089213;28;24556;-46
2022/04/29 07:21:31;;;;;;;9.90;9.00;;;;;;;;;;5086482;28;24491;-46
2022/04/29 07:23:57;;;;;;;10.10;9.30;;;;;;;;;;5068886;28;24391;-46
2022/04/29 07:26:22;;;;;;;10.15;9.25;;;;;;;;;;5077677;28;24500;-46
2022/04/29 07:28:47;;;;;;;10.07;9.27;;;;;;;;;;5088539;28;24409;-46
2022/04/29 07:31:12;;;;;;;10.87;9.87;;;;;;;;;;5089086;28;24485;-46
2022/04/29 07:33:38;;;;;;;10.10;9.30;;;;;;;;;;5088302;28;24390;-46
2022/04/29 07:41:46;;;;;;;12.35;11.10;;;;;;;;;;5088871;28;24587;-46
2022/04/29 07:44:11;;;;;;;11.50;10.30;;;;;;;;;;5088475;28;24465;-46
2022/04/29 07:46:36;;;;;;;13.27;11.97;;;;;;;;;;5087361;28;24531;-46
2022/04/29 07:49:02;;;;;;;13.30;12.10;;;;;;;;;;5088620;28;24409;-46
2022/04/29 07:51:27;;;;;;;10.87;9.93;;;;;;;;;;5088459;28;24413;-47
2022/04/29 07:53:52;;;;;;;11.80;10.73;;;;;;;;;;5087525;28;25105;-47
2022/04/29 07:56:17;;;;;;;11.13;10.13;;;;;;;;;;5088095;28;24505;-46
2022/04/29 07:58:43;;;;;;;10.30;9.40;;;;;;;;;;5088408;28;24398;-47
2022/04/29 08:01:09;;;;;;;12.20;11.10;;;;;;;;;;5086394;28;24434;-46
2022/04/29 08:03:35;;;;;;;13.30;12.05;;;;;;;;;;5087881;28;24416;-46
2022/04/29 08:06:02;;;;;;;12.50;11.20;;;;;;;;;;5080378;28;24468;-47
2022/04/29 08:08:27;;;;;;;11.23;10.23;;;;;;;;;;5081318;28;25310;-46
2022/04/29 08:10:52;;;;;;;13.33;11.23;;;;;;;;;;5067488;28;24521;-46
2022/04/29 08:13:18;;;;;;;11.40;10.30;;;;;;;;;;5080413;28;24422;-47
2022/04/29 08:15:45;;;;;;;11.85;10.75;;;;;;;;;;5087496;28;24425;-47
2022/04/29 08:18:12;;;;;;;11.95;10.75;;;;;;;;;;5067944;28;24869;-48
2022/04/29 08:20:37;;;;;;;11.43;10.35;;;;;;;;;;5066554;28;24438;-47
2022/04/29 08:23:02;;;;;;;11.40;10.40;;;;;;;;;;5068035;28;24927;-47
2022/04/29 08:25:27;;;;;;;12.35;11.15;;;;;;;;;;5078816;28;24510;-47
2022/04/29 08:27:53;;;;;;;11.10;10.10;;;;;;;;;;5075407;28;24479;-47
2022/04/29 08:30:18;;;;;;;13.70;12.40;;;;;;;;;;5085991;28;24808;-47
2022/04/29 08:32:44;;;;;;;9.73;8.90;;;;;;;;;;5066185;28;24438;-47
2022/04/29 08:35:10;;;;;;;11.97;10.77;;;;;;;;;;5081316;28;24418;-47
2022/04/29 08:37:38;;;;;;;10.30;9.30;;;;;;;;;;5072698;28;24660;-47
2022/04/29 08:40:04;;;;;;;12.07;10.98;;;;;;;;;;5081951;28;24515;-47
2022/04/29 08:42:30;;;;;;;11.25;10.32;;;;;;;;;;5066439;28;24411;-47
2022/04/29 08:44:55;;;;;;;11.27;10.27;;;;;;;;;;5067002;28;24393;-47
2022/04/29 08:47:21;;;;;;;11.27;10.20;;;;;;;;;;5084263;28;24818;-47
2022/04/29 08:49:46;;;;;;;11.77;10.57;;;;;;;;;;5073795;28;24418;-47
2022/04/29 08:52:13;;;;;;;9.20;8.40;;;;;;;;;;5076891;28;24475;-47
2022/04/29 09:00:07;;;;;;;10.35;9.45;;;;;;;;;;5081535;28;24469;-47
2022/04/29 09:02:40;;;;;;;9.30;8.60;;;;;;;;;;5067236;28;24387;-47
2022/04/29 09:05:10;;;;;;;9.47;8.57;;;;;;;;;;5083353;28;24534;-47
2022/04/29 09:07:52;;;;;;;9.57;8.67;;;;;;;;;;5087277;28;24426;-47
2022/04/29 09:10:17;;;;;;;7.55;6.47;;;;;;;;;;5076767;28;24769;-47
2022/04/29 09:12:42;;;;;;;6.80;6.10;;;;;;;;;;5087323;28;24409;-47
2022/04/29 09:15:11;;;;;;;8.90;8.00;;;;;;;;;;5085445;28;24489;-47
2022/04/29 09:17:39;;;;;;;7.22;6.53;;;;;;;;;;5077422;28;24505;-48
2022/04/29 09:20:11;;;;;;;7.55;6.75;;;;;;;;;;5067876;28;24449;-47
2022/04/29 09:22:38;;;;;;;6.20;5.60;;;;;;;;;;5067019;28;24398;-47
2022/04/29 09:25:04;;;;;;;4.95;4.55;;;;;;;;;;5074273;28;24921;-47
2022/04/29 09:27:29;;;;;;;5.90;5.30;;;;;;;;;;5087470;28;24387;-47
2022/04/29 09:29:58;;;;;;;5.18;4.70;;;;;;;;;;5085240;28;25005;-48
2022/04/29 09:32:23;;;;;;;6.70;6.00;;;;;;;;;;5086987;28;24829;-47
2022/04/29 09:34:50;;;;;;;5.20;4.70;;;;;;;;;;5086655;28;24748;-46
2022/04/29 09:37:19;;;;;;;6.40;5.32;;;;;;;;;;5086165;28;24420;-46
2022/04/29 09:39:50;;;;;;;6.22;5.30;;;;;;;;;;5086055;28;24497;-46
2022/04/29 09:42:15;;;;;;;5.90;5.30;;;;;;;;;;5066630;28;24434;-46
2022/04/29 09:44:40;;;;;;;7.10;6.40;;;;;;;;;;5066598;28;24445;-45
2022/04/29 09:47:11;;;;;;;8.20;7.40;;;;;;;;;;5066740;28;24458;-45
2022/04/29 09:49:36;;;;;;;7.28;6.57;;;;;;;;;;5073496;28;24537;-45
2022/04/29 09:52:02;;;;;;;7.07;6.37;;;;;;;;;;5089118;28;25031;-45
2022/04/29 09:54:28;;;;;;;7.10;6.40;;;;;;;;;;5090513;28;24409;-45
2022/04/29 09:57:04;;;;;;;9.13;7.80;;;;;;;;;;5091096;28;24742;-45
2022/04/29 09:59:33;;;;;;;7.25;6.55;;;;;;;;;;5091144;28;24447;-45
2022/04/29 10:01:59;;;;;;;9.18;7.10;;;;;;;;;;5088927;28;25170;-46
2022/04/29 10:04:24;;;;;;;6.75;6.05;;;;;;;;;;5071108;28;25099;-46
2022/04/29 10:06:50;;;;;;;6.77;6.07;;;;;;;;;;5070379;28;24387;-46
2022/04/29 10:09:16;;;;;;;7.68;6.40;;;;;;;;;;5077482;28;24410;-46
2022/04/29 10:11:43;;;;;;;6.22;5.63;;;;;;;;;;5071634;28;24417;-46
2022/04/29 10:14:08;;;;;;;6.25;5.25;;;;;;;;;;5070364;28;24440;-46
2022/04/29 10:16:34;;;;;;;5.60;5.00;;;;;;;;;;5070630;28;24464;-48
2022/04/29 10:21:46;;;;;;;6.17;5.57;;;;;;;;;;5090128;28;24393;-46
2022/04/29 10:24:12;;;;;;;6.10;5.50;;;;;;;;;;5070206;28;24407;-46
2022/04/29 10:26:37;;;;;;;7.45;6.00;;;;;;;;;;5070141;28;24395;-46
2022/04/29 10:29:03;;;;;;;6.10;5.60;;;;;;;;;;5070252;28;24422;-46
2022/04/29 10:31:29;;;;;;;7.23;5.00;;;;;;;;;;5081046;28;24857;-47
2022/04/29 10:33:54;;;;;;;5.80;5.27;;;;;;;;;;5088403;28;24406;-47
2022/04/29 10:36:22;;;;;;;5.53;5.03;;;;;;;;;;5089819;28;24936;-47
2022/04/29 10:38:48;;;;;;;6.03;5.43;;;;;;;;;;5074646;28;24513;-46
2022/04/29 10:41:16;;;;;;;5.07;4.57;;;;;;;;;;5089086;28;24440;-45
2022/04/29 10:43:49;;;;;;;6.50;5.00;;;;;;;;;;5088249;28;24414;-45
2022/04/29 10:46:15;;;;;;;6.30;5.70;;;;;;;;;;5089955;28;24409;-45
2022/04/29 10:48:41;;;;;;;5.50;5.00;;;;;;;;;;5090193;28;24387;-45
2022/04/29 10:51:10;;;;;;;5.78;5.28;;;;;;;;;;5089648;28;24471;-45
2022/04/29 10:53:37;;;;;;;6.65;5.40;;;;;;;;;;5087840;28;24893;-46
2022/04/29 10:56:21;;;;;;;7.80;5.28;;;;;;;;;;5089749;28;24405;-46
2022/04/29 10:58:46;;;;;;;8.18;6.97;;;;;;;;;;5089506;28;24451;-45
2022/04/29 11:01:14;;;;;;;6.83;6.23;;;;;;;;;;5088230;28;24468;-46
2022/04/29 11:03:41;;;;;;;6.10;5.50;;;;;;;;;;5083397;28;24402;-46
2022/04/29 11:06:08;;;;;;;7.60;6.90;;;;;;;;;;5087976;28;24406;-46
2022/04/29 11:08:33;;;;;;;7.18;6.10;;;;;;;;;;5089860;28;24398;-46
2022/04/29 11:10:59;;;;;;;6.37;5.80;;;;;;;;;;5089326;28;24386;-46
2022/04/29 11:13:26;;;;;;;7.60;6.90;;;;;;;;;;5088892;28;24417;-46
2022/04/29 11:15:52;;;;;;;5.93;5.43;;;;;;;;;;5076047;28;24468;-46
2022/04/29 11:18:20;;;;;;;6.67;5.97;;;;;;;;;;5069086;28;24464;-47
2022/04/29 11:20:47;;;;;;;6.93;6.22;;;;;;;;;;5069068;28;24988;-47
2022/04/29 11:25:57;;;;;;;7.50;6.68;;;;;;;;;;5080001;28;25044;-46
2022/04/29 11:28:23;;;;;;;5.90;5.28;;;;;;;;;;5068987;28;24406;-46
2022/04/29 11:30:49;;;;;;;5.68;5.18;;;;;;;;;;5069003;28;24422;-46
2022/04/29 11:33:20;;;;;;;5.80;5.20;;;;;;;;;;5068909;28;24390;-47
2022/04/29 11:35:45;;;;;;;5.50;5.10;;;;;;;;;;5086564;28;24553;-47
2022/04/29 11:38:10;;;;;;;6.80;6.20;;;;;;;;;;5088911;28;24563;-47
2022/04/29 11:40:39;;;;;;;4.77;4.33;;;;;;;;;;5088033;28;24437;-47
2022/04/29 11:43:07;;;;;;;6.10;5.50;;;;;;;;;;5086911;28;24661;-46
2022/04/29 11:45:32;;;;;;;7.00;5.80;;;;;;;;;;5088424;28;24407;-47
2022/04/29 11:48:07;;;;;;;5.60;5.10;;;;;;;;;;5078050;28;24595;-46
2022/04/29 11:50:33;;;;;;;6.18;5.25;;;;;;;;;;5083656;28;24475;-47
2022/04/29 11:53:05;;;;;;;5.45;5.05;;;;;;;;;;5087801;28;24975;-47
2022/04/29 11:55:30;;;;;;;5.45;5.05;;;;;;;;;;5087857;28;24429;-47
2022/04/29 11:57:55;;;;;;;5.60;5.10;;;;;;;;;;5076418;28;24419;-46
2022/04/29 12:00:22;;;;;;;5.27;4.77;;;;;;;;;;5072968;28;24989;-46
2022/04/29 12:02:48;;;;;;;5.25;4.75;;;;;;;;;;5088742;28;24440;-48
2022/04/29 12:05:13;;;;;;;7.40;6.70;;;;;;;;;;5087643;28;24465;-46
2022/04/29 12:07:42;;;;;;;6.10;5.60;;;;;;;;;;5086935;28;24414;-46
2022/04/29 12:10:14;;;;;;;7.25;6.65;;;;;;;;;;5088361;28;24468;-51
2022/04/29 12:12:40;;;;;;;6.97;6.28;;;;;;;;;;5087035;28;24417;-46
2022/04/29 12:15:08;;;;;;;6.00;5.40;;;;;;;;;;5087739;28;24530;-47
2022/04/29 12:17:38;;;;;;;5.82;5.28;;;;;;;;;;5088303;28;24406;-46
2022/04/29 12:20:04;;;;;;;5.57;4.97;;;;;;;;;;5067721;28;24944;-46
2022/04/29 12:22:31;;;;;;;7.13;6.43;;;;;;;;;;5067631;28;24962;-46
2022/04/29 12:24:56;;;;;;;8.90;6.60;;;;;;;;;;5073365;28;24451;-46
2022/04/29 12:27:29;;;;;;;9.10;7.67;;;;;;;;;;5088227;28;24409;-46
2022/04/29 12:35:26;;;;;;;7.65;6.95;;;;;;;;;;5073840;28;24807;-46
2022/04/29 12:37:53;;;;;;;7.22;6.53;;;;;;;;;;5078975;28;24415;-46
2022/04/29 12:40:25;;;;;;;7.38;6.70;;;;;;;;;;5067387;28;24430;-47
2022/04/29 12:42:50;;;;;;;8.43;7.63;;;;;;;;;;5067267;28;24549;-47
2022/04/29 12:45:22;;;;;;;7.75;6.95;;;;;;;;;;5067175;28;24479;-46
2022/04/29 12:47:50;;;;;;;5.75;5.25;;;;;;;;;;5068889;28;24499;-46
2022/04/29 12:50:31;;;;;;;7.00;6.30;;;;;;;;;;5067295;28;24652;-46
2022/04/29 12:53:06;;;;;;;8.05;7.25;;;;;;;;;;5067351;28;24395;-46
2022/04/29 12:55:32;;;;;;;9.35;7.43;;;;;;;;;;5067038;28;24438;-47
2022/04/29 12:58:14;;;;;;;8.10;7.40;;;;;;;;;;5086055;28;24422;-46
2022/04/29 13:00:59;;;;;;;6.95;6.32;;;;;;;;;;5079239;28;25100;-46
2022/04/29 13:03:26;;;;;;;7.47;6.60;;;;;;;;;;5066929;28;24483;-48
2022/04/29 13:05:52;;;;;;;7.75;6.88;;;;;;;;;;5069415;28;24511;-47
2022/04/29 13:08:17;;;;;;;7.70;6.50;;;;;;;;;;5085108;28;24570;-46
2022/04/29 13:10:45;;;;;;;8.63;7.22;;;;;;;;;;5077656;28;24438;-46
2022/04/29 13:13:11;;;;;;;8.82;7.38;;;;;;;;;;5066801;28;24461;-47
2022/04/29 13:15:38;;;;;;;7.15;6.45;;;;;;;;;;5064181;28;24492;-46
2022/04/29 13:18:03;;;;;;;6.30;5.80;;;;;;;;;;5077819;28;24434;-46
2022/04/29 13:20:28;;;;;;;5.25;4.75;;;;;;;;;;5084787;28;25196;-46
2022/04/29 13:22:54;;;;;;;6.70;5.70;;;;;;;;;;5086275;28;24395;-46
2022/04/29 13:25:19;;;;;;;6.83;5.93;;;;;;;;;;5085397;28;24502;-46
2022/04/29 13:27:44;;;;;;;6.30;5.70;;;;;;;;;;5087297;28;24464;-46
2022/04/29 13:30:11;;;;;;;6.72;6.03;;;;;;;;;;5079076;28;24518;-46
2022/04/29 13:32:36;;;;;;;7.13;6.43;;;;;;;;;;5079821;28;24461;-46
2022/04/29 13:35:02;;;;;;;7.55;6.80;;;;;;;;;;5076727;28;24451;-46
2022/04/29 13:37:28;;;;;;;5.87;4.93;;;;;;;;;;5082882;28;24532;-47
2022/04/29 13:39:53;;;;;;;5.70;5.20;;;;;;;;;;5077386;28;24430;-47
2022/04/29 13:42:19;;;;;;;5.03;4.53;;;;;;;;;;5081585;28;24746;-45
2022/04/29 13:44:44;;;;;;;5.40;4.87;;;;;;;;;;5073108;28;24472;-47
2022/04/29 13:47:09;;;;;;;6.70;6.10;;;;;;;;;;5079421;28;24414;-45
2022/04/29 13:49:35;;;;;;;5.10;4.70;;;;;;;;;;5081332;28;24798;-46
2022/04/29 13:54:44;;;;;;;6.20;5.60;;;;;;;;;;5074450;28;25024;-45
2022/04/29 13:57:09;;;;;;;5.63;5.03;;;;;;;;;;5083571;28;24418;-45
2022/04/29 13:59:34;;;;;;;5.40;4.90;;;;;;;;;;5076706;28;24438;-45
2022/04/29 14:01:59;;;;;;;5.20;4.80;;;;;;;;;;5086883;28;24808;-46
2022/04/29 14:04:25;;;;;;;5.27;4.77;;;;;;;;;;5078115;28;24999;-46
2022/04/29 14:06:50;;;;;;;4.63;4.23;;;;;;;;;;5083196;28;24452;-46
2022/04/29 14:09:15;;;;;;;4.68;4.28;;;;;;;;;;5080570;28;24422;-47
2022/04/29 14:11:41;;;;;;;5.03;4.63;;;;;;;;;;5084768;28;24610;-45
2022/04/29 14:14:07;;;;;;;5.43;4.93;;;;;;;;;;5080184;28;24527;-46
2022/04/29 14:16:32;;;;;;;5.30;4.88;;;;;;;;;;5086658;28;24852;-46
2022/04/29 14:18:57;;;;;;;4.32;3.92;;;;;;;;;;5079946;28;24426;-46
2022/04/29 14:21:22;;;;;;;4.30;3.90;;;;;;;;;;5076256;28;24441;-46
2022/04/29 14:23:47;;;;;;;4.88;4.43;;;;;;;;;;5082877;28;25005;-46
2022/04/29 14:26:12;;;;;;;4.93;4.43;;;;;;;;;;5071696;28;24415;-47
2022/04/29 14:28:37;;;;;;;5.75;4.88;;;;;;;;;;5069480;28;24427;-46
2022/04/29 14:31:03;;;;;;;4.82;4.40;;;;;;;;;;5079100;28;25275;-46
2022/04/29 14:33:28;;;;;;;5.28;4.78;;;;;;;;;;5084413;28;24421;-45
2022/04/29 14:35:53;;;;;;;5.75;5.25;;;;;;;;;;5087669;28;24426;-45
2022/04/29 14:38:18;;;;;;;6.30;5.70;;;;;;;;;;5077662;28;24491;-46
2022/04/29 14:40:43;;;;;;;5.80;5.30;;;;;;;;;;5069626;28;24417;-47
2022/04/29 14:43:10;;;;;;;6.10;5.50;;;;;;;;;;5071753;28;24454;-46
2022/04/29 14:45:35;;;;;;;5.50;4.60;;;;;;;;;;5069472;28;24423;-45
2022/04/29 14:48:01;;;;;;;6.97;6.20;;;;;;;;;;5068361;28;24812;-45
2022/04/29 14:50:26;;;;;;;7.43;6.73;;;;;;;;;;5070509;28;24441;-45
2022/04/29 14:52:51;;;;;;;6.90;6.20;;;;;;;;;;5078971;28;25062;-46
2022/04/29 14:55:16;;;;;;;5.20;4.77;;;;;;;;;;5089484;28;24421;-46